Sharptown, New Jersey
Current Conditions -  °F | °C
As of 11:51 AM on Thursday 27 Nov 2014 (Local Time) from KILG Reporting Station
Overcast Overcast  
Wind Chill: 34°   Ceiling: 6500
Heat Index: 40°   Visibility: 10mi
Dew Point: 30°   Wind: 9mph
Humidity: 68%   Direction: 320°NW
Pressure: 30.04"   Gusts: NA
Location:  39.6335°N, 75.3233°W
Report Text: KILG 271651Z AUTO 32008KT 10SM FEW021 OVC065 04/M01 A3004 RMK AO2 SLP172 T00441011
Loading
Personal Weather Stations






























Interactive Weather Map New forecast layout! Learn more

10-Day Weather Forecast

Advertisements
Track Severe Weather on mobile